sensor_id;sensor_type;location;lat;lon;timestamp;P1;durP1;ratioP1;P2;durP2;ratioP2
69856;SDS011;57147;53.582;10.112;2022-11-22T00:02:15;20.45;;;10.35;;
69856;SDS011;57147;53.582;10.112;2022-11-22T00:07:15;19.23;;;10.57;;
69856;SDS011;57147;53.582;10.112;2022-11-22T00:12:19;19.85;;;9.30;;
69856;SDS011;57147;53.582;10.112;2022-11-22T00:17:19;19.92;;;9.60;;
69856;SDS011;57147;53.582;10.112;2022-11-22T00:22:20;19.63;;;10.98;;
69856;SDS011;57147;53.582;10.112;2022-11-22T00:27:23;22.75;;;11.10;;
69856;SDS011;57147;53.582;10.112;2022-11-22T00:32:23;20.70;;;10.57;;
69856;SDS011;57147;53.582;10.112;2022-11-22T00:37:24;17.58;;;9.45;;
69856;SDS011;57147;53.582;10.112;2022-11-22T00:42:27;19.45;;;10.63;;
69856;SDS011;57147;53.582;10.112;2022-11-22T00:47:28;21.70;;;10.95;;
69856;SDS011;57147;53.582;10.112;2022-11-22T00:52:28;23.70;;;11.30;;
69856;SDS011;57147;53.582;10.112;2022-11-22T00:57:32;20.60;;;10.52;;
69856;SDS011;57147;53.582;10.112;2022-11-22T01:02:32;23.20;;;11.88;;
69856;SDS011;57147;53.582;10.112;2022-11-22T01:07:33;21.73;;;11.32;;
69856;SDS011;57147;53.582;10.112;2022-11-22T01:12:36;21.60;;;12.05;;
69856;SDS011;57147;53.582;10.112;2022-11-22T01:17:37;20.80;;;10.70;;
69856;SDS011;57147;53.582;10.112;2022-11-22T01:22:38;24.10;;;11.52;;
69856;SDS011;57147;53.582;10.112;2022-11-22T01:27:41;23.65;;;12.65;;
69856;SDS011;57147;53.582;10.112;2022-11-22T01:32:41;23.90;;;12.40;;
69856;SDS011;57147;53.582;10.112;2022-11-22T01:37:42;26.50;;;13.82;;
69856;SDS011;57147;53.582;10.112;2022-11-22T01:42:47;24.17;;;12.98;;
69856;SDS011;57147;53.582;10.112;2022-11-22T01:47:50;22.58;;;11.30;;
69856;SDS011;57147;53.582;10.112;2022-11-22T01:52:51;22.60;;;10.88;;
69856;SDS011;57147;53.582;10.112;2022-11-22T01:57:56;23.20;;;11.60;;
69856;SDS011;57147;53.582;10.112;2022-11-22T02:02:57;24.55;;;12.23;;
69856;SDS011;57147;53.582;10.112;2022-11-22T02:08:02;21.83;;;10.90;;
69856;SDS011;57147;53.582;10.112;2022-11-22T02:13:10;24.65;;;14.23;;
69856;SDS011;57147;53.582;10.112;2022-11-22T02:18:12;25.48;;;12.77;;
69856;SDS011;57147;53.582;10.112;2022-11-22T02:23:15;26.35;;;11.48;;
69856;SDS011;57147;53.582;10.112;2022-11-22T02:28:24;24.27;;;12.98;;
69856;SDS011;57147;53.582;10.112;2022-11-22T02:33:25;23.85;;;12.15;;
69856;SDS011;57147;53.582;10.112;2022-11-22T02:38:27;23.83;;;12.38;;
69856;SDS011;57147;53.582;10.112;2022-11-22T02:43:36;25.17;;;12.65;;
69856;SDS011;57147;53.582;10.112;2022-11-22T02:48:39;24.63;;;12.95;;
69856;SDS011;57147;53.582;10.112;2022-11-22T02:53:40;23.10;;;11.82;;
69856;SDS011;57147;53.582;10.112;2022-11-22T02:58:43;24.00;;;11.90;;
69856;SDS011;57147;53.582;10.112;2022-11-22T03:03:44;23.80;;;12.05;;
69856;SDS011;57147;53.582;10.112;2022-11-22T03:08:44;21.80;;;10.52;;
69856;SDS011;57147;53.582;10.112;2022-11-22T03:13:47;22.75;;;12.45;;
69856;SDS011;57147;53.582;10.112;2022-11-22T03:18:48;21.50;;;11.95;;
69856;SDS011;57147;53.582;10.112;2022-11-22T03:23:49;22.70;;;12.55;;
69856;SDS011;57147;53.582;10.112;2022-11-22T03:28:52;22.05;;;11.05;;
69856;SDS011;57147;53.582;10.112;2022-11-22T03:33:53;22.50;;;12.13;;
69856;SDS011;57147;53.582;10.112;2022-11-22T03:38:54;21.42;;;12.02;;
69856;SDS011;57147;53.582;10.112;2022-11-22T03:43:58;22.02;;;11.52;;
69856;SDS011;57147;53.582;10.112;2022-11-22T03:48:58;23.52;;;11.40;;
69856;SDS011;57147;53.582;10.112;2022-11-22T03:53:59;22.85;;;12.90;;
69856;SDS011;57147;53.582;10.112;2022-11-22T03:59:02;22.88;;;10.98;;
69856;SDS011;57147;53.582;10.112;2022-11-22T04:04:03;21.88;;;11.43;;
69856;SDS011;57147;53.582;10.112;2022-11-22T04:09:04;23.63;;;11.18;;
69856;SDS011;57147;53.582;10.112;2022-11-22T04:19:17;19.70;;;11.68;;
69856;SDS011;57147;53.582;10.112;2022-11-22T04:24:18;22.00;;;11.63;;
69856;SDS011;57147;53.582;10.112;2022-11-22T04:29:21;22.17;;;11.30;;
69856;SDS011;57147;53.582;10.112;2022-11-22T04:34:22;23.92;;;12.13;;
69856;SDS011;57147;53.582;10.112;2022-11-22T04:39:23;22.27;;;11.90;;
69856;SDS011;57147;53.582;10.112;2022-11-22T04:44:26;22.77;;;12.25;;
69856;SDS011;57147;53.582;10.112;2022-11-22T04:49:26;22.85;;;11.85;;
69856;SDS011;57147;53.582;10.112;2022-11-22T04:54:27;23.38;;;11.60;;
69856;SDS011;57147;53.582;10.112;2022-11-22T04:59:30;23.98;;;12.40;;
69856;SDS011;57147;53.582;10.112;2022-11-22T05:04:31;24.33;;;13.63;;
69856;SDS011;57147;53.582;10.112;2022-11-22T05:09:32;23.77;;;13.27;;
69856;SDS011;57147;53.582;10.112;2022-11-22T05:14:35;26.45;;;13.15;;
69856;SDS011;57147;53.582;10.112;2022-11-22T05:19:36;24.60;;;12.75;;
69856;SDS011;57147;53.582;10.112;2022-11-22T05:24:36;23.80;;;12.40;;
69856;SDS011;57147;53.582;10.112;2022-11-22T05:29:39;24.30;;;13.07;;
69856;SDS011;57147;53.582;10.112;2022-11-22T05:34:40;23.98;;;12.10;;
69856;SDS011;57147;53.582;10.112;2022-11-22T05:39:40;23.17;;;12.57;;
69856;SDS011;57147;53.582;10.112;2022-11-22T05:44:44;24.02;;;13.30;;
69856;SDS011;57147;53.582;10.112;2022-11-22T05:49:44;24.13;;;12.93;;
69856;SDS011;57147;53.582;10.112;2022-11-22T05:54:45;25.70;;;13.98;;
69856;SDS011;57147;53.582;10.112;2022-11-22T05:59:48;25.45;;;13.40;;
69856;SDS011;57147;53.582;10.112;2022-11-22T06:04:49;24.38;;;15.48;;
69856;SDS011;57147;53.582;10.112;2022-11-22T06:09:49;24.15;;;13.70;;
69856;SDS011;57147;53.582;10.112;2022-11-22T06:14:52;27.23;;;13.88;;
69856;SDS011;57147;53.582;10.112;2022-11-22T06:19:53;26.58;;;14.68;;
69856;SDS011;57147;53.582;10.112;2022-11-22T06:24:53;26.20;;;13.68;;
69856;SDS011;57147;53.582;10.112;2022-11-22T06:29:57;23.77;;;12.40;;
69856;SDS011;57147;53.582;10.112;2022-11-22T06:34:57;27.05;;;13.57;;
69856;SDS011;57147;53.582;10.112;2022-11-22T06:39:58;28.30;;;14.20;;
69856;SDS011;57147;53.582;10.112;2022-11-22T06:45:01;30.58;;;15.73;;
69856;SDS011;57147;53.582;10.112;2022-11-22T06:50:02;27.50;;;14.45;;
69856;SDS011;57147;53.582;10.112;2022-11-22T06:55:03;28.45;;;14.32;;
69856;SDS011;57147;53.582;10.112;2022-11-22T07:00:08;32.83;;;15.65;;
69856;SDS011;57147;53.582;10.112;2022-11-22T07:05:09;29.67;;;16.50;;
69856;SDS011;57147;53.582;10.112;2022-11-22T07:10:09;29.55;;;14.65;;
69856;SDS011;57147;53.582;10.112;2022-11-22T07:15:13;40.05;;;21.05;;
69856;SDS011;57147;53.582;10.112;2022-11-22T07:20:14;37.65;;;18.60;;
69856;SDS011;57147;53.582;10.112;2022-11-22T07:25:14;30.73;;;15.57;;
69856;SDS011;57147;53.582;10.112;2022-11-22T07:30:18;30.45;;;17.60;;
69856;SDS011;57147;53.582;10.112;2022-11-22T07:35:20;28.48;;;14.68;;
69856;SDS011;57147;53.582;10.112;2022-11-22T07:40:20;28.48;;;14.18;;
69856;SDS011;57147;53.582;10.112;2022-11-22T07:45:23;28.98;;;15.23;;
69856;SDS011;57147;53.582;10.112;2022-11-22T07:50:24;27.92;;;14.65;;
69856;SDS011;57147;53.582;10.112;2022-11-22T07:55:25;28.05;;;15.75;;
69856;SDS011;57147;53.582;10.112;2022-11-22T08:00:30;26.98;;;14.30;;
69856;SDS011;57147;53.582;10.112;2022-11-22T08:05:30;28.30;;;14.30;;
69856;SDS011;57147;53.582;10.112;2022-11-22T08:10:31;28.70;;;15.35;;
69856;SDS011;57147;53.582;10.112;2022-11-22T08:15:34;33.80;;;17.08;;
69856;SDS011;57147;53.582;10.112;2022-11-22T08:20:35;31.27;;;15.93;;
69856;SDS011;57147;53.582;10.112;2022-11-22T08:25:35;27.77;;;14.43;;
69856;SDS011;57147;53.582;10.112;2022-11-22T08:30:39;29.98;;;16.80;;
69856;SDS011;57147;53.582;10.112;2022-11-22T08:35:39;29.48;;;15.40;;
69856;SDS011;57147;53.582;10.112;2022-11-22T08:40:40;29.45;;;15.27;;
69856;SDS011;57147;53.582;10.112;2022-11-22T08:45:43;29.40;;;15.43;;
69856;SDS011;57147;53.582;10.112;2022-11-22T08:50:48;30.13;;;15.32;;
69856;SDS011;57147;53.582;10.112;2022-11-22T08:55:50;29.80;;;14.20;;
69856;SDS011;57147;53.582;10.112;2022-11-22T09:00:53;28.73;;;14.32;;
69856;SDS011;57147;53.582;10.112;2022-11-22T09:05:58;28.98;;;14.25;;
69856;SDS011;57147;53.582;10.112;2022-11-22T09:10:59;31.95;;;17.02;;
69856;SDS011;57147;53.582;10.112;2022-11-22T09:16:04;26.98;;;13.45;;
69856;SDS011;57147;53.582;10.112;2022-11-22T09:21:06;27.65;;;14.90;;
69856;SDS011;57147;53.582;10.112;2022-11-22T09:26:09;26.90;;;13.68;;
69856;SDS011;57147;53.582;10.112;2022-11-22T09:31:15;28.00;;;14.80;;
69856;SDS011;57147;53.582;10.112;2022-11-22T09:36:17;27.10;;;13.68;;
69856;SDS011;57147;53.582;10.112;2022-11-22T09:41:26;27.58;;;13.60;;
69856;SDS011;57147;53.582;10.112;2022-11-22T09:46:45;27.80;;;15.13;;
69856;SDS011;57147;53.582;10.112;2022-11-22T09:51:51;28.25;;;15.00;;
69856;SDS011;57147;53.582;10.112;2022-11-22T09:56:59;29.15;;;16.23;;
69856;SDS011;57147;53.582;10.112;2022-11-22T10:02:06;27.55;;;14.77;;
69856;SDS011;57147;53.582;10.112;2022-11-22T10:07:12;24.35;;;12.55;;
69856;SDS011;57147;53.582;10.112;2022-11-22T10:12:17;27.20;;;14.45;;
69856;SDS011;57147;53.582;10.112;2022-11-22T10:17:27;25.83;;;13.07;;
69856;SDS011;57147;53.582;10.112;2022-11-22T10:22:35;26.05;;;13.23;;
69856;SDS011;57147;53.582;10.112;2022-11-22T10:27:35;27.45;;;13.63;;
69856;SDS011;57147;53.582;10.112;2022-11-22T10:32:41;29.45;;;14.95;;
69856;SDS011;57147;53.582;10.112;2022-11-22T10:37:52;26.55;;;13.98;;
69856;SDS011;57147;53.582;10.112;2022-11-22T10:43:17;30.77;;;14.57;;
69856;SDS011;57147;53.582;10.112;2022-11-22T10:48:27;26.33;;;14.52;;
69856;SDS011;57147;53.582;10.112;2022-11-22T10:53:35;27.08;;;14.27;;
69856;SDS011;57147;53.582;10.112;2022-11-22T10:58:50;28.17;;;13.65;;
69856;SDS011;57147;53.582;10.112;2022-11-22T11:04:00;27.33;;;14.25;;
69856;SDS011;57147;53.582;10.112;2022-11-22T11:14:06;29.20;;;15.73;;
69856;SDS011;57147;53.582;10.112;2022-11-22T11:19:16;27.83;;;13.70;;
69856;SDS011;57147;53.582;10.112;2022-11-22T11:24:18;28.02;;;14.88;;
69856;SDS011;57147;53.582;10.112;2022-11-22T11:29:23;26.58;;;14.63;;
69856;SDS011;57147;53.582;10.112;2022-11-22T11:34:35;25.63;;;14.30;;
69856;SDS011;57147;53.582;10.112;2022-11-22T11:39:37;26.30;;;13.70;;
69856;SDS011;57147;53.582;10.112;2022-11-22T11:44:44;26.65;;;12.57;;
69856;SDS011;57147;53.582;10.112;2022-11-22T11:49:51;24.80;;;14.07;;
69856;SDS011;57147;53.582;10.112;2022-11-22T11:54:52;24.73;;;13.32;;
69856;SDS011;57147;53.582;10.112;2022-11-22T11:59:55;27.02;;;14.88;;
69856;SDS011;57147;53.582;10.112;2022-11-22T12:05:00;25.48;;;13.25;;
69856;SDS011;57147;53.582;10.112;2022-11-22T12:15:32;25.27;;;13.82;;
69856;SDS011;57147;53.582;10.112;2022-11-22T12:20:42;26.55;;;13.77;;
69856;SDS011;57147;53.582;10.112;2022-11-22T12:25:49;25.10;;;13.32;;
69856;SDS011;57147;53.582;10.112;2022-11-22T12:30:54;25.90;;;13.48;;
69856;SDS011;57147;53.582;10.112;2022-11-22T12:36:00;26.13;;;13.13;;
69856;SDS011;57147;53.582;10.112;2022-11-22T12:46:08;26.27;;;13.35;;
69856;SDS011;57147;53.582;10.112;2022-11-22T12:51:14;25.60;;;14.57;;
69856;SDS011;57147;53.582;10.112;2022-11-22T12:56:21;27.73;;;14.73;;
69856;SDS011;57147;53.582;10.112;2022-11-22T13:01:27;26.83;;;15.30;;
69856;SDS011;57147;53.582;10.112;2022-11-22T13:06:37;26.77;;;14.70;;
69856;SDS011;57147;53.582;10.112;2022-11-22T13:11:45;27.50;;;14.63;;
69856;SDS011;57147;53.582;10.112;2022-11-22T13:16:49;29.05;;;14.13;;
69856;SDS011;57147;53.582;10.112;2022-11-22T13:21:58;26.63;;;14.70;;
69856;SDS011;57147;53.582;10.112;2022-11-22T13:27:11;27.95;;;15.13;;
69856;SDS011;57147;53.582;10.112;2022-11-22T13:32:18;26.40;;;13.80;;
69856;SDS011;57147;53.582;10.112;2022-11-22T13:37:22;24.45;;;13.13;;
69856;SDS011;57147;53.582;10.112;2022-11-22T13:42:25;28.90;;;15.57;;
69856;SDS011;57147;53.582;10.112;2022-11-22T13:47:34;28.55;;;15.38;;
69856;SDS011;57147;53.582;10.112;2022-11-22T13:52:52;28.92;;;15.45;;
69856;SDS011;57147;53.582;10.112;2022-11-22T13:57:53;27.73;;;15.15;;
69856;SDS011;57147;53.582;10.112;2022-11-22T14:02:54;27.40;;;14.70;;
69856;SDS011;57147;53.582;10.112;2022-11-22T14:08:32;27.00;;;14.57;;
69856;SDS011;57147;53.582;10.112;2022-11-22T14:13:35;28.95;;;15.68;;
69856;SDS011;57147;53.582;10.112;2022-11-22T14:24:23;40.47;;;19.95;;
69856;SDS011;57147;53.582;10.112;2022-11-22T14:35:23;28.48;;;15.55;;
69856;SDS011;57147;53.582;10.112;2022-11-22T14:40:30;30.67;;;16.55;;
69856;SDS011;57147;53.582;10.112;2022-11-22T14:45:39;27.25;;;15.00;;
69856;SDS011;57147;53.582;10.112;2022-11-22T14:50:43;29.08;;;15.98;;
69856;SDS011;57147;53.582;10.112;2022-11-22T14:55:50;30.10;;;13.77;;
69856;SDS011;57147;53.582;10.112;2022-11-22T15:06:24;31.67;;;15.52;;
69856;SDS011;57147;53.582;10.112;2022-11-22T15:16:58;30.15;;;16.58;;
69856;SDS011;57147;53.582;10.112;2022-11-22T15:22:04;31.60;;;15.02;;
69856;SDS011;57147;53.582;10.112;2022-11-22T15:27:13;29.10;;;14.55;;
69856;SDS011;57147;53.582;10.112;2022-11-22T15:32:17;29.73;;;14.90;;
69856;SDS011;57147;53.582;10.112;2022-11-22T15:37:22;29.30;;;15.77;;
69856;SDS011;57147;53.582;10.112;2022-11-22T15:42:34;27.27;;;15.27;;
69856;SDS011;57147;53.582;10.112;2022-11-22T15:47:34;24.38;;;12.25;;
69856;SDS011;57147;53.582;10.112;2022-11-22T15:52:36;27.25;;;14.32;;
69856;SDS011;57147;53.582;10.112;2022-11-22T15:57:39;30.98;;;14.73;;
69856;SDS011;57147;53.582;10.112;2022-11-22T16:02:46;28.33;;;15.98;;
69856;SDS011;57147;53.582;10.112;2022-11-22T16:07:48;28.33;;;13.82;;
69856;SDS011;57147;53.582;10.112;2022-11-22T16:12:53;28.33;;;14.82;;
69856;SDS011;57147;53.582;10.112;2022-11-22T16:17:54;30.60;;;15.07;;
69856;SDS011;57147;53.582;10.112;2022-11-22T16:23:11;26.30;;;13.93;;
69856;SDS011;57147;53.582;10.112;2022-11-22T16:33:37;29.42;;;15.07;;
69856;SDS011;57147;53.582;10.112;2022-11-22T16:38:38;29.48;;;15.60;;
69856;SDS011;57147;53.582;10.112;2022-11-22T16:43:41;29.73;;;14.10;;
69856;SDS011;57147;53.582;10.112;2022-11-22T16:48:42;28.42;;;15.60;;
69856;SDS011;57147;53.582;10.112;2022-11-22T16:53:44;29.80;;;14.75;;
69856;SDS011;57147;53.582;10.112;2022-11-22T16:58:49;27.92;;;12.95;;
69856;SDS011;57147;53.582;10.112;2022-11-22T17:03:51;32.15;;;14.52;;
69856;SDS011;57147;53.582;10.112;2022-11-22T17:08:54;29.98;;;15.52;;
69856;SDS011;57147;53.582;10.112;2022-11-22T17:13:58;31.13;;;16.23;;
69856;SDS011;57147;53.582;10.112;2022-11-22T17:18:59;29.73;;;14.75;;
69856;SDS011;57147;53.582;10.112;2022-11-22T17:24:00;32.88;;;14.73;;
69856;SDS011;57147;53.582;10.112;2022-11-22T17:29:05;28.77;;;14.18;;
69856;SDS011;57147;53.582;10.112;2022-11-22T17:34:05;30.98;;;15.05;;
69856;SDS011;57147;53.582;10.112;2022-11-22T17:39:07;29.90;;;14.45;;
69856;SDS011;57147;53.582;10.112;2022-11-22T17:44:14;30.27;;;13.82;;
69856;SDS011;57147;53.582;10.112;2022-11-22T17:49:17;35.10;;;15.07;;
69856;SDS011;57147;53.582;10.112;2022-11-22T17:54:18;35.78;;;21.38;;
69856;SDS011;57147;53.582;10.112;2022-11-22T17:59:21;34.05;;;16.90;;
69856;SDS011;57147;53.582;10.112;2022-11-22T18:04:21;31.90;;;15.15;;
69856;SDS011;57147;53.582;10.112;2022-11-22T18:09:22;32.78;;;16.98;;
69856;SDS011;57147;53.582;10.112;2022-11-22T18:14:25;30.60;;;14.25;;
69856;SDS011;57147;53.582;10.112;2022-11-22T18:19:26;35.75;;;15.57;;
69856;SDS011;57147;53.582;10.112;2022-11-22T18:24:26;34.45;;;16.95;;
69856;SDS011;57147;53.582;10.112;2022-11-22T18:29:29;34.78;;;18.10;;
69856;SDS011;57147;53.582;10.112;2022-11-22T18:34:30;31.20;;;15.07;;
69856;SDS011;57147;53.582;10.112;2022-11-22T18:39:31;31.15;;;15.70;;
69856;SDS011;57147;53.582;10.112;2022-11-22T18:44:35;33.13;;;14.75;;
69856;SDS011;57147;53.582;10.112;2022-11-22T18:49:36;30.67;;;15.60;;
69856;SDS011;57147;53.582;10.112;2022-11-22T18:54:36;33.60;;;18.38;;
69856;SDS011;57147;53.582;10.112;2022-11-22T18:59:40;33.50;;;17.05;;
69856;SDS011;57147;53.582;10.112;2022-11-22T19:04:40;35.53;;;15.13;;
69856;SDS011;57147;53.582;10.112;2022-11-22T19:09:41;35.53;;;17.38;;
69856;SDS011;57147;53.582;10.112;2022-11-22T19:14:44;31.95;;;17.17;;
69856;SDS011;57147;53.582;10.112;2022-11-22T19:19:44;31.85;;;16.38;;
69856;SDS011;57147;53.582;10.112;2022-11-22T19:24:45;35.58;;;16.50;;
69856;SDS011;57147;53.582;10.112;2022-11-22T19:29:48;35.85;;;17.30;;
69856;SDS011;57147;53.582;10.112;2022-11-22T19:34:49;33.20;;;15.50;;
69856;SDS011;57147;53.582;10.112;2022-11-22T19:39:50;35.20;;;16.05;;
69856;SDS011;57147;53.582;10.112;2022-11-22T19:44:53;34.28;;;15.23;;
69856;SDS011;57147;53.582;10.112;2022-11-22T19:49:53;33.70;;;15.45;;
69856;SDS011;57147;53.582;10.112;2022-11-22T19:54:56;37.20;;;17.08;;
69856;SDS011;57147;53.582;10.112;2022-11-22T20:00:00;37.92;;;17.80;;
69856;SDS011;57147;53.582;10.112;2022-11-22T20:05:00;31.00;;;15.00;;
69856;SDS011;57147;53.582;10.112;2022-11-22T20:10:01;32.92;;;15.65;;
69856;SDS011;57147;53.582;10.112;2022-11-22T20:15:05;29.88;;;14.70;;
69856;SDS011;57147;53.582;10.112;2022-11-22T20:20:07;30.15;;;14.40;;
69856;SDS011;57147;53.582;10.112;2022-11-22T20:25:08;32.80;;;15.43;;
69856;SDS011;57147;53.582;10.112;2022-11-22T20:30:12;32.85;;;15.40;;
69856;SDS011;57147;53.582;10.112;2022-11-22T20:35:13;34.17;;;14.40;;
69856;SDS011;57147;53.582;10.112;2022-11-22T20:40:14;32.22;;;14.80;;
69856;SDS011;57147;53.582;10.112;2022-11-22T20:45:18;35.70;;;18.42;;
69856;SDS011;57147;53.582;10.112;2022-11-22T20:50:18;33.65;;;16.67;;
69856;SDS011;57147;53.582;10.112;2022-11-22T20:55:19;38.08;;;16.73;;
69856;SDS011;57147;53.582;10.112;2022-11-22T21:00:22;34.85;;;16.15;;
69856;SDS011;57147;53.582;10.112;2022-11-22T21:05:23;32.65;;;15.57;;
69856;SDS011;57147;53.582;10.112;2022-11-22T21:10:24;39.42;;;19.73;;
69856;SDS011;57147;53.582;10.112;2022-11-22T21:15:27;41.20;;;19.92;;
69856;SDS011;57147;53.582;10.112;2022-11-22T21:20:28;36.42;;;18.92;;
69856;SDS011;57147;53.582;10.112;2022-11-22T21:25:28;40.58;;;20.15;;
69856;SDS011;57147;53.582;10.112;2022-11-22T21:30:32;41.25;;;19.65;;
69856;SDS011;57147;53.582;10.112;2022-11-22T21:35:33;36.10;;;17.63;;
69856;SDS011;57147;53.582;10.112;2022-11-22T21:40:33;31.40;;;16.50;;
69856;SDS011;57147;53.582;10.112;2022-11-22T21:45:38;32.30;;;13.48;;
69856;SDS011;57147;53.582;10.112;2022-11-22T21:50:39;29.58;;;14.30;;
69856;SDS011;57147;53.582;10.112;2022-11-22T21:55:46;32.40;;;14.65;;
69856;SDS011;57147;53.582;10.112;2022-11-22T22:00:52;32.88;;;14.70;;
69856;SDS011;57147;53.582;10.112;2022-11-22T22:05:54;29.67;;;13.15;;
69856;SDS011;57147;53.582;10.112;2022-11-22T22:10:56;32.05;;;16.20;;
69856;SDS011;57147;53.582;10.112;2022-11-22T22:16:00;29.27;;;13.27;;
69856;SDS011;57147;53.582;10.112;2022-11-22T22:21:02;31.67;;;13.60;;
69856;SDS011;57147;53.582;10.112;2022-11-22T22:26:05;30.02;;;13.90;;
69856;SDS011;57147;53.582;10.112;2022-11-22T22:31:10;33.00;;;15.43;;
69856;SDS011;57147;53.582;10.112;2022-11-22T22:36:12;27.23;;;14.63;;
69856;SDS011;57147;53.582;10.112;2022-11-22T22:41:13;27.17;;;13.02;;
69856;SDS011;57147;53.582;10.112;2022-11-22T22:46:17;29.45;;;13.45;;
69856;SDS011;57147;53.582;10.112;2022-11-22T22:51:19;27.58;;;14.27;;
69856;SDS011;57147;53.582;10.112;2022-11-22T22:56:22;31.88;;;14.48;;
69856;SDS011;57147;53.582;10.112;2022-11-22T23:01:26;25.95;;;13.30;;
69856;SDS011;57147;53.582;10.112;2022-11-22T23:06:28;31.23;;;13.15;;
69856;SDS011;57147;53.582;10.112;2022-11-22T23:11:31;27.70;;;13.60;;
69856;SDS011;57147;53.582;10.112;2022-11-22T23:16:36;31.60;;;14.57;;
69856;SDS011;57147;53.582;10.112;2022-11-22T23:21:36;33.75;;;16.17;;
69856;SDS011;57147;53.582;10.112;2022-11-22T23:26:37;28.27;;;13.88;;
69856;SDS011;57147;53.582;10.112;2022-11-22T23:31:41;32.17;;;15.00;;
69856;SDS011;57147;53.582;10.112;2022-11-22T23:36:42;31.90;;;14.45;;
69856;SDS011;57147;53.582;10.112;2022-11-22T23:41:43;28.67;;;13.48;;
69856;SDS011;57147;53.582;10.112;2022-11-22T23:46:46;29.50;;;13.77;;
69856;SDS011;57147;53.582;10.112;2022-11-22T23:51:47;28.52;;;14.75;;
69856;SDS011;57147;53.582;10.112;2022-11-22T23:56:47;28.73;;;13.65;;
